createdAt,value
2018-08-31T00:01:49.825Z,18.04
2018-08-31T00:04:31.290Z,17.98
2018-08-31T00:09:20.711Z,17.93
2018-08-31T00:13:03.535Z,17.92
2018-08-31T00:15:33.347Z,17.98
2018-08-31T00:18:03.937Z,17.86
2018-08-31T00:20:34.770Z,17.85
2018-08-31T00:23:05.368Z,17.76
2018-08-31T00:26:18.786Z,17.71
2018-08-31T00:29:42.363Z,17.72
2018-08-31T00:33:19.966Z,17.83
2018-08-31T00:39:03.611Z,17.67
2018-08-31T00:43:51.966Z,17.56
2018-08-31T00:46:21.493Z,17.70
2018-08-31T00:48:51.565Z,17.72
2018-08-31T00:51:21.282Z,17.76
2018-08-31T00:53:50.663Z,17.84
2018-08-31T00:56:20.385Z,17.85
2018-08-31T00:58:50.966Z,17.88
2018-08-31T01:01:23.563Z,17.90
2018-08-31T01:03:56.438Z,17.83
2018-08-31T01:06:25.894Z,17.86
2018-08-31T01:08:57.739Z,17.85
2018-08-31T01:11:28.745Z,17.88
2018-08-31T01:13:58.368Z,17.76
2018-08-31T01:16:28.129Z,17.78
2018-08-31T01:18:58.411Z,17.76
2018-08-31T01:21:28.175Z,17.66
2018-08-31T01:23:58.015Z,17.67
2018-08-31T01:26:27.590Z,17.58
2018-08-31T01:28:58.842Z,17.53
2018-08-31T01:31:29.455Z,17.55
2018-08-31T01:34:00.805Z,17.59
2018-08-31T01:36:32.357Z,17.49
2018-08-31T01:39:04.999Z,17.52
2018-08-31T01:41:48.008Z,17.50
2018-08-31T01:44:21.701Z,17.29
2018-08-31T01:46:54.517Z,17.29
2018-08-31T01:49:26.257Z,17.37
2018-08-31T01:51:57.173Z,17.36
2018-08-31T01:54:28.286Z,17.36
2018-08-31T01:56:58.117Z,17.45
2018-08-31T01:59:27.596Z,17.44
2018-08-31T02:01:58.428Z,17.52
2018-08-31T02:04:28.300Z,17.51
2018-08-31T02:06:58.715Z,17.41
2018-08-31T02:09:28.075Z,17.31
2018-08-31T02:11:58.646Z,17.23
2018-08-31T02:14:28.314Z,17.25
2018-08-31T02:16:58.444Z,17.16
2018-08-31T02:19:28.065Z,17.03
2018-08-31T02:21:58.369Z,17.06
2018-08-31T02:24:28.815Z,17.09
2018-08-31T02:26:58.471Z,17.04
2018-08-31T02:29:28.349Z,17.11
2018-08-31T02:31:58.573Z,17.03
2018-08-31T02:34:29.225Z,17.10
2018-08-31T02:36:58.710Z,17.08
2018-08-31T02:39:28.653Z,16.94
2018-08-31T02:41:58.010Z,16.99
2018-08-31T02:44:28.484Z,16.88
2018-08-31T02:47:01.974Z,16.88
2018-08-31T02:49:33.256Z,16.94
2018-08-31T02:52:03.654Z,16.98
2018-08-31T02:54:33.645Z,16.61
2018-08-31T02:57:04.472Z,16.88
2018-08-31T02:59:33.763Z,16.93
2018-08-31T03:02:03.459Z,16.98
2018-08-31T03:04:33.165Z,16.98
2018-08-31T03:07:05.987Z,16.76
2018-08-31T03:09:37.863Z,17.05
2018-08-31T03:12:07.451Z,17.11
2018-08-31T03:14:38.619Z,17.01
2018-08-31T03:17:08.501Z,16.95
2018-08-31T03:19:37.985Z,16.96
2018-08-31T03:22:07.397Z,16.82
2018-08-31T03:24:40.117Z,16.82
2018-08-31T03:27:09.930Z,16.84
2018-08-31T03:29:41.226Z,16.93
2018-08-31T03:32:11.018Z,16.97
2018-08-31T03:34:41.615Z,16.98
2018-08-31T03:37:12.666Z,17.02
2018-08-31T03:39:42.345Z,17.00
2018-08-31T03:42:11.884Z,16.97
2018-08-31T03:44:42.001Z,16.97
2018-08-31T03:47:13.962Z,17.05
2018-08-31T03:49:44.475Z,16.98
2018-08-31T03:52:18.484Z,17.09
2018-08-31T03:54:48.141Z,17.01
2018-08-31T03:57:18.803Z,17.02
2018-08-31T03:59:48.458Z,17.06
2018-08-31T04:02:19.030Z,17.04
2018-08-31T04:04:48.783Z,16.92
2018-08-31T04:07:18.245Z,16.94
2018-08-31T04:09:47.949Z,17.08
2018-08-31T04:12:17.361Z,17.18
2018-08-31T04:14:49.328Z,17.18
2018-08-31T04:17:19.471Z,17.17
2018-08-31T04:19:48.867Z,17.24
2018-08-31T04:22:18.335Z,17.11
2018-08-31T04:24:48.014Z,17.07
2018-08-31T04:27:21.309Z,17.08
2018-08-31T04:29:50.811Z,17.11
2018-08-31T04:32:20.304Z,17.17
2018-08-31T04:34:49.701Z,17.24
2018-08-31T04:37:19.592Z,17.28
2018-08-31T04:39:49.093Z,17.36
2018-08-31T04:42:19.262Z,17.27
2018-08-31T04:44:49.617Z,17.20
2018-08-31T04:47:20.045Z,17.23
2018-08-31T04:49:50.919Z,17.15
2018-08-31T04:52:20.788Z,17.06
2018-08-31T04:54:50.446Z,17.09
2018-08-31T04:57:24.582Z,17.15
2018-08-31T04:59:56.196Z,17.10
2018-08-31T05:02:27.194Z,16.92
2018-08-31T05:04:57.397Z,16.60
2018-08-31T05:07:30.108Z,16.49
2018-08-31T05:10:00.394Z,16.48
2018-08-31T05:12:30.780Z,16.44
2018-08-31T05:15:00.263Z,16.22
2018-08-31T05:17:30.523Z,16.13
2018-08-31T05:22:23.423Z,16.11
2018-08-31T05:24:53.583Z,16.16
2018-08-31T05:27:23.327Z,15.88
2018-08-31T05:29:52.868Z,16.17
2018-08-31T05:32:24.770Z,16.17
2018-08-31T05:34:55.160Z,16.12
2018-08-31T05:37:25.128Z,16.09
2018-08-31T05:39:55.446Z,16.23
2018-08-31T05:42:26.061Z,16.27
2018-08-31T05:45:03.352Z,16.27
2018-08-31T05:47:34.230Z,16.26
2018-08-31T05:50:05.052Z,16.24
2018-08-31T05:52:35.279Z,16.32
2018-08-31T05:55:05.312Z,16.34
2018-08-31T05:57:36.190Z,16.40
2018-08-31T06:00:09.365Z,16.53
2018-08-31T06:02:39.139Z,16.68
2018-08-31T06:05:09.381Z,16.78
2018-08-31T06:07:38.863Z,16.84
2018-08-31T06:10:08.477Z,17.05
2018-08-31T06:12:42.078Z,17.12
2018-08-31T06:15:18.720Z,17.13
2018-08-31T06:17:48.978Z,17.36
2018-08-31T06:20:19.306Z,17.51
2018-08-31T06:22:48.930Z,17.63
2018-08-31T06:27:59.740Z,17.71
2018-08-31T06:30:30.545Z,17.81
2018-08-31T06:33:01.005Z,17.79
2018-08-31T06:35:30.999Z,17.79
2018-08-31T06:38:01.051Z,17.89
2018-08-31T06:40:31.524Z,18.01
2018-08-31T06:43:02.671Z,18.03
2018-08-31T06:45:34.540Z,18.04
2018-08-31T06:48:04.863Z,18.17
2018-08-31T06:50:34.768Z,16.99
2018-08-31T06:53:05.437Z,18.44
2018-08-31T06:55:47.825Z,18.45
2018-08-31T06:58:22.057Z,18.46
2018-08-31T07:00:55.793Z,18.39
2018-08-31T07:03:25.217Z,18.43
2018-08-31T07:05:54.775Z,18.36
2018-08-31T07:08:25.655Z,18.75
2018-08-31T07:10:57.291Z,18.73
2018-08-31T07:13:30.879Z,18.90
2018-08-31T07:16:01.770Z,18.93
2018-08-31T07:18:31.391Z,18.95
2018-08-31T07:21:01.633Z,19.03
2018-08-31T07:23:31.651Z,19.08
2018-08-31T07:26:04.483Z,19.20
2018-08-31T07:28:34.139Z,19.31
2018-08-31T07:31:06.511Z,19.43
2018-08-31T07:33:38.429Z,19.44
2018-08-31T07:36:08.535Z,19.55
2018-08-31T07:38:37.976Z,19.75
2018-08-31T07:41:08.093Z,19.71
2018-08-31T07:46:03.660Z,20.02
2018-08-31T07:48:33.194Z,20.20
2018-08-31T07:51:03.278Z,20.25
2018-08-31T07:53:32.758Z,20.50
2018-08-31T07:56:07.632Z,20.75
2018-08-31T07:58:37.506Z,20.62
2018-08-31T08:01:08.448Z,20.59
2018-08-31T08:03:45.237Z,20.57
2018-08-31T08:06:16.892Z,20.63
2018-08-31T08:08:47.230Z,20.66
2018-08-31T08:11:17.276Z,20.89
2018-08-31T08:13:47.158Z,21.11
2018-08-31T08:16:21.689Z,21.55
2018-08-31T08:18:52.332Z,21.68
2018-08-31T08:21:23.846Z,21.79
2018-08-31T08:23:53.597Z,21.63
2018-08-31T08:26:23.265Z,21.82
2018-08-31T08:28:52.717Z,22.16
2018-08-31T08:31:23.354Z,21.91
2018-08-31T08:33:52.572Z,22.55
2018-08-31T08:36:25.472Z,22.68
2018-08-31T08:38:57.960Z,22.89
2018-08-31T08:41:27.829Z,22.74
2018-08-31T08:44:00.675Z,23.41
2018-08-31T08:46:30.173Z,23.43
2018-08-31T08:48:59.476Z,23.36
2018-08-31T08:51:29.614Z,23.40
2018-08-31T08:53:58.723Z,23.51
2018-08-31T08:56:28.497Z,23.72
2018-08-31T08:59:12.720Z,23.74
2018-08-31T09:01:42.864Z,23.66
2018-08-31T09:04:12.145Z,23.60
2018-08-31T09:06:41.581Z,23.52
2018-08-31T09:09:11.876Z,23.69
2018-08-31T09:11:43.595Z,23.79
2018-08-31T09:14:12.995Z,23.83
2018-08-31T09:16:43.390Z,23.97
2018-08-31T09:19:12.796Z,24.02
2018-08-31T09:21:42.023Z,23.95
2018-08-31T09:24:12.015Z,23.84
2018-08-31T09:26:41.796Z,23.98
2018-08-31T09:29:12.101Z,23.94
2018-08-31T09:31:49.188Z,23.80
2018-08-31T09:34:19.988Z,24.03
2018-08-31T09:36:51.208Z,24.20
2018-08-31T09:39:21.267Z,24.54
2018-08-31T09:42:04.942Z,24.46
2018-08-31T09:44:34.617Z,25.07
2018-08-31T09:47:05.806Z,25.12
2018-08-31T09:49:35.307Z,25.30
2018-08-31T09:52:05.972Z,25.75
2018-08-31T09:54:36.488Z,25.39
2018-08-31T09:57:08.555Z,25.27
2018-08-31T09:59:38.840Z,25.53
2018-08-31T10:02:13.904Z,25.90
2018-08-31T10:04:43.138Z,26.49
2018-08-31T10:07:15.806Z,26.58
2018-08-31T10:09:46.120Z,26.66
2018-08-31T10:12:22.839Z,26.56
2018-08-31T10:15:07.390Z,26.91
2018-08-31T10:17:40.809Z,27.53
2018-08-31T10:20:13.296Z,27.20
2018-08-31T10:22:44.016Z,26.87
2018-08-31T10:25:15.210Z,27.13
2018-08-31T10:27:45.522Z,27.45
2018-08-31T10:30:22.263Z,27.66
2018-08-31T10:32:58.491Z,27.55
2018-08-31T10:35:28.283Z,27.12
2018-08-31T10:38:08.242Z,26.76
2018-08-31T10:40:38.365Z,26.10
2018-08-31T10:43:09.477Z,25.35
2018-08-31T10:45:39.050Z,25.25
2018-08-31T10:48:08.523Z,24.96
2018-08-31T10:50:38.900Z,24.87
2018-08-31T10:55:39.929Z,25.17
2018-08-31T10:58:11.962Z,25.92
2018-08-31T11:00:42.784Z,26.31
2018-08-31T11:03:14.067Z,26.96
2018-08-31T11:05:49.389Z,27.08
2018-08-31T11:08:20.047Z,27.15
2018-08-31T11:10:50.718Z,27.52
2018-08-31T11:13:20.628Z,26.82
2018-08-31T11:15:52.876Z,27.66
2018-08-31T11:18:24.198Z,27.63
2018-08-31T11:26:28.606Z,28.28
2018-08-31T11:28:58.748Z,27.95
2018-08-31T11:31:30.729Z,28.15
2018-08-31T11:34:21.645Z,28.28
2018-08-31T11:36:51.940Z,28.53
2018-08-31T11:39:32.763Z,28.74
2018-08-31T11:42:04.148Z,28.64
2018-08-31T11:44:34.745Z,28.78
2018-08-31T11:47:06.053Z,29.04
2018-08-31T11:49:35.343Z,29.13
2018-08-31T11:52:09.466Z,29.41
2018-08-31T11:54:51.036Z,29.16
2018-08-31T11:57:21.572Z,28.85
2018-08-31T11:59:51.337Z,28.44
2018-08-31T12:02:23.438Z,28.33
2018-08-31T12:04:53.064Z,27.84
2018-08-31T12:07:24.999Z,27.63
2018-08-31T12:09:55.959Z,27.47
2018-08-31T12:12:27.264Z,27.37
2018-08-31T12:15:14.652Z,27.19
2018-08-31T12:17:47.456Z,26.83
2018-08-31T12:20:17.689Z,26.83
2018-08-31T12:22:47.207Z,26.58
2018-08-31T12:25:17.157Z,26.05
2018-08-31T12:27:58.302Z,26.13
2018-08-31T12:30:32.743Z,25.81
2018-08-31T12:33:03.381Z,25.42
2018-08-31T12:35:33.251Z,25.17
2018-08-31T12:38:03.371Z,25.37
2018-08-31T12:40:34.535Z,25.64
2018-08-31T12:43:12.797Z,25.65
2018-08-31T12:45:48.449Z,25.80
2018-08-31T12:48:24.773Z,26.11
2018-08-31T12:50:57.623Z,26.15
2018-08-31T12:53:28.977Z,26.54
2018-08-31T12:55:59.722Z,26.32
2018-08-31T12:58:33.320Z,25.93
2018-08-31T13:01:06.617Z,26.35
2018-08-31T13:03:43.540Z,26.51
2018-08-31T13:06:15.290Z,26.67
2018-08-31T13:08:46.851Z,26.21
2018-08-31T13:11:17.822Z,26.06
2018-08-31T13:13:50.749Z,25.76
2018-08-31T13:16:21.270Z,25.89
2018-08-31T13:18:56.916Z,25.78
2018-08-31T13:21:38.270Z,26.18
2018-08-31T13:24:08.853Z,26.17
2018-08-31T13:26:42.051Z,26.81
2018-08-31T13:29:12.448Z,27.23
2018-08-31T13:31:42.551Z,27.49
2018-08-31T13:34:15.241Z,27.26
2018-08-31T13:36:46.986Z,27.33
2018-08-31T13:39:26.366Z,27.17
2018-08-31T13:41:55.892Z,26.82
2018-08-31T13:44:26.227Z,26.50
2018-08-31T13:46:58.746Z,26.19
2018-08-31T13:49:28.046Z,25.91
2018-08-31T13:52:03.016Z,25.56
2018-08-31T13:54:32.393Z,25.28
2018-08-31T13:57:02.873Z,25.10
2018-08-31T13:59:33.533Z,25.14
2018-08-31T14:04:33.185Z,25.36
2018-08-31T14:07:03.656Z,25.60
2018-08-31T14:09:34.226Z,25.70
2018-08-31T14:12:06.589Z,25.91
2018-08-31T14:14:39.501Z,25.98
2018-08-31T14:17:09.800Z,25.83
2018-08-31T14:19:40.471Z,25.71
2018-08-31T14:22:11.335Z,25.72
2018-08-31T14:24:40.806Z,25.41
2018-08-31T14:27:10.307Z,25.24
2018-08-31T14:29:40.595Z,25.03
2018-08-31T14:32:12.721Z,25.01
2018-08-31T14:34:49.483Z,24.80
2018-08-31T14:37:22.625Z,24.81
2018-08-31T14:39:52.163Z,24.74
2018-08-31T14:42:23.235Z,24.55
2018-08-31T14:44:54.637Z,22.68
2018-08-31T14:47:24.526Z,24.49
2018-08-31T14:49:59.472Z,24.56
2018-08-31T14:52:31.469Z,24.51
2018-08-31T14:55:04.104Z,24.41
2018-08-31T14:57:34.228Z,24.64
2018-08-31T15:00:09.192Z,24.72
2018-08-31T15:02:39.589Z,24.74
2018-08-31T15:05:11.251Z,25.03
2018-08-31T15:07:42.328Z,25.29
2018-08-31T15:10:16.359Z,25.60
2018-08-31T15:12:47.965Z,25.32
2018-08-31T15:15:18.904Z,25.36
2018-08-31T15:17:52.489Z,25.24
2018-08-31T15:20:26.273Z,25.42
2018-08-31T15:22:56.470Z,25.06
2018-08-31T15:28:22.297Z,25.26
2018-08-31T15:30:56.827Z,25.18
2018-08-31T15:33:32.397Z,25.06
2018-08-31T15:36:07.189Z,25.03
2018-08-31T15:38:37.339Z,24.91
2018-08-31T15:41:17.222Z,24.49
2018-08-31T15:43:46.457Z,24.38
2018-08-31T15:48:53.099Z,24.35
2018-08-31T15:51:23.914Z,23.93
2018-08-31T15:53:55.961Z,23.85
2018-08-31T15:56:28.069Z,23.60
2018-08-31T16:00:07.147Z,23.39
2018-08-31T16:02:51.371Z,23.24
2018-08-31T16:05:20.700Z,23.24
2018-08-31T16:07:52.369Z,23.20
2018-08-31T16:10:22.785Z,23.15
2018-08-31T16:12:55.013Z,23.13
2018-08-31T16:15:26.429Z,23.16
2018-08-31T16:17:58.833Z,23.18
2018-08-31T16:20:32.456Z,23.16
2018-08-31T16:23:02.410Z,23.10
2018-08-31T16:25:33.455Z,22.99
2018-08-31T16:28:09.869Z,23.03
2018-08-31T16:30:45.563Z,23.18
2018-08-31T16:33:16.838Z,23.15
2018-08-31T16:35:48.112Z,23.10
2018-08-31T16:38:28.412Z,23.14
2018-08-31T16:41:00.951Z,23.19
2018-08-31T16:43:32.398Z,23.29
2018-08-31T16:46:14.255Z,23.22
2018-08-31T16:48:45.368Z,23.30
2018-08-31T16:53:57.107Z,23.30
2018-08-31T16:56:27.123Z,23.16
2018-08-31T16:58:59.495Z,23.07
2018-08-31T17:04:21.681Z,22.78
2018-08-31T17:06:55.721Z,22.99
2018-08-31T17:09:24.980Z,22.98
2018-08-31T17:11:58.959Z,23.00
2018-08-31T17:14:28.502Z,22.94
2018-08-31T17:16:58.052Z,22.92
2018-08-31T17:19:31.317Z,23.05
2018-08-31T17:22:02.660Z,23.13
2018-08-31T17:24:34.302Z,22.98
2018-08-31T17:32:57.485Z,22.95
2018-08-31T17:35:34.117Z,22.92
2018-08-31T17:38:11.442Z,23.00
2018-08-31T17:40:43.697Z,22.99
2018-08-31T17:43:15.273Z,22.97
2018-08-31T17:45:46.346Z,22.90
2018-08-31T17:48:19.263Z,22.75
2018-08-31T17:50:49.788Z,22.53
2018-08-31T17:53:26.461Z,22.56
2018-08-31T17:56:02.675Z,22.53
2018-08-31T17:58:36.214Z,22.53
2018-08-31T18:01:13.077Z,22.49
2018-08-31T18:03:48.304Z,22.45
2018-08-31T18:06:26.107Z,22.22
2018-08-31T18:08:58.462Z,22.34
2018-08-31T18:11:30.579Z,22.37
2018-08-31T18:14:05.709Z,22.30
2018-08-31T18:16:39.815Z,22.23
2018-08-31T18:19:09.524Z,22.08
2018-08-31T18:21:47.219Z,21.98
2018-08-31T18:24:19.082Z,21.86
2018-08-31T18:26:56.793Z,21.59
2018-08-31T18:29:32.397Z,21.50
2018-08-31T18:32:07.531Z,21.46
2018-08-31T18:34:45.053Z,21.32
2018-08-31T18:37:17.532Z,21.40
2018-08-31T18:40:03.825Z,21.32
2018-08-31T18:45:28.178Z,21.27
2018-08-31T18:48:00.541Z,21.19
2018-08-31T18:50:38.741Z,21.16
2018-08-31T18:53:17.794Z,21.22
2018-08-31T18:55:58.111Z,21.27
2018-08-31T18:58:31.512Z,21.21
2018-08-31T19:01:04.698Z,21.13
2018-08-31T19:03:44.706Z,20.92
2018-08-31T19:06:20.431Z,21.14
2018-08-31T19:08:50.894Z,21.03
2018-08-31T19:11:21.851Z,21.02
2018-08-31T19:14:00.231Z,20.99
2018-08-31T19:16:33.932Z,20.94
2018-08-31T19:19:07.180Z,20.88
2018-08-31T19:21:37.112Z,20.85
2018-08-31T19:24:09.124Z,20.78
2018-08-31T19:26:40.477Z,20.73
2018-08-31T19:29:25.276Z,20.65
2018-08-31T19:31:56.419Z,20.56
2018-08-31T19:34:37.664Z,20.58
2018-08-31T19:37:15.727Z,20.52
2018-08-31T19:39:49.237Z,20.53
2018-08-31T19:42:23.109Z,20.58
2018-08-31T19:44:56.561Z,20.55
2018-08-31T19:47:31.894Z,20.54
2018-08-31T19:50:38.692Z,20.58
2018-08-31T19:53:10.043Z,20.61
2018-08-31T19:55:45.541Z,20.55
2018-08-31T19:58:17.482Z,20.45
2018-08-31T20:00:49.423Z,20.35
2018-08-31T20:03:38.317Z,20.42
2018-08-31T20:06:12.210Z,20.34
2018-08-31T20:08:47.213Z,20.31
2018-08-31T20:11:19.573Z,20.23
2018-08-31T20:13:50.561Z,20.05
2018-08-31T20:16:24.308Z,20.06
2018-08-31T20:18:58.351Z,20.14
2018-08-31T20:21:28.608Z,20.14
2018-08-31T20:23:59.869Z,20.21
2018-08-31T20:26:34.203Z,20.04
2018-08-31T20:29:07.471Z,20.06
2018-08-31T20:31:44.596Z,19.88
2018-08-31T20:34:17.270Z,19.77
2018-08-31T20:36:48.067Z,19.67
2018-08-31T20:39:18.362Z,19.64
2018-08-31T20:41:51.214Z,19.69
2018-08-31T20:44:21.382Z,19.64
2018-08-31T20:46:54.214Z,19.71
2018-08-31T20:49:32.934Z,19.71
2018-08-31T20:52:06.464Z,19.69
2018-08-31T20:54:46.511Z,19.74
2018-08-31T20:57:23.880Z,19.65
2018-08-31T21:00:14.336Z,19.63
2018-08-31T21:03:11.925Z,19.68
2018-08-31T21:05:43.626Z,19.73
2018-08-31T21:08:13.919Z,19.74
2018-08-31T21:10:51.372Z,19.79
2018-08-31T21:13:21.844Z,19.72
2018-08-31T21:15:54.247Z,19.78
2018-08-31T21:18:28.695Z,19.80
2018-08-31T21:20:58.392Z,19.81
2018-08-31T21:23:30.929Z,19.88
2018-08-31T21:26:04.491Z,19.90
2018-08-31T21:28:36.521Z,19.86
2018-08-31T21:31:09.261Z,19.87
2018-08-31T21:33:38.718Z,19.80
2018-08-31T21:36:15.666Z,19.71
2018-08-31T21:38:46.142Z,19.64
2018-08-31T21:41:18.913Z,19.61
2018-08-31T21:43:50.729Z,19.57
2018-08-31T21:46:23.677Z,19.54
2018-08-31T21:48:54.877Z,19.42
2018-08-31T21:51:26.657Z,19.28
2018-08-31T21:53:58.749Z,19.32
2018-08-31T21:56:29.168Z,19.34
2018-08-31T21:58:59.611Z,19.33
2018-08-31T22:01:35.978Z,19.33
2018-08-31T22:04:05.660Z,19.31
2018-08-31T22:06:35.751Z,19.32
2018-08-31T22:09:09.678Z,19.32
2018-08-31T22:11:45.857Z,19.36
2018-08-31T22:14:27.424Z,19.34
2018-08-31T22:17:00.806Z,19.39
2018-08-31T22:19:35.466Z,19.38
2018-08-31T22:22:06.642Z,19.29
2018-08-31T22:24:38.466Z,19.26
2018-08-31T22:27:12.050Z,19.20
2018-08-31T22:29:44.263Z,19.14
2018-08-31T22:32:14.376Z,19.07
2018-08-31T22:34:45.574Z,19.07
2018-08-31T22:37:18.666Z,19.03
2018-08-31T22:39:50.350Z,19.04
2018-08-31T22:42:20.352Z,18.97
2018-08-31T22:44:53.083Z,18.95
2018-08-31T22:47:30.306Z,19.01
2018-08-31T22:50:00.458Z,19.05
2018-08-31T22:52:29.800Z,18.97
2018-08-31T22:55:00.008Z,18.89
2018-08-31T22:57:29.725Z,18.85
2018-08-31T22:59:59.285Z,18.78
2018-08-31T23:02:30.203Z,18.82
2018-08-31T23:05:01.094Z,18.79
2018-08-31T23:07:37.546Z,18.71
2018-08-31T23:10:08.490Z,18.61
2018-08-31T23:12:42.150Z,18.66
2018-08-31T23:15:16.637Z,18.58
2018-08-31T23:17:46.605Z,18.55
2018-08-31T23:20:16.515Z,18.56
2018-08-31T23:22:49.465Z,18.56
2018-08-31T23:25:25.206Z,18.55
2018-08-31T23:27:55.351Z,18.44
2018-08-31T23:30:25.646Z,18.39
2018-08-31T23:32:55.112Z,18.37
2018-08-31T23:35:25.797Z,18.35
2018-08-31T23:37:55.292Z,18.32
2018-08-31T23:40:25.799Z,18.24
2018-08-31T23:42:55.322Z,18.24
2018-08-31T23:45:24.993Z,18.21
2018-08-31T23:47:54.788Z,18.16
2018-08-31T23:50:24.226Z,18.12
2018-08-31T23:52:54.614Z,18.03
2018-08-31T23:55:27.308Z,17.98
2018-08-31T23:57:58.391Z,17.94
